createdAt,value
2018-03-08T00:00:26.120Z,46.70
2018-03-08T00:02:54.324Z,47.55
2018-03-08T00:05:23.266Z,51.60
2018-03-08T00:07:51.397Z,49.42
2018-03-08T00:10:20.318Z,50.67
2018-03-08T00:12:48.467Z,48.25
2018-03-08T00:15:17.391Z,51.05
2018-03-08T00:17:45.537Z,49.53
2018-03-08T00:20:13.741Z,51.37
2018-03-08T00:22:41.901Z,49.47
2018-03-08T00:25:10.029Z,52.13
2018-03-08T00:27:38.981Z,49.63
2018-03-08T00:30:07.142Z,45.83
2018-03-08T00:32:35.285Z,49.35
2018-03-08T00:35:04.206Z,51.10
2018-03-08T00:37:32.366Z,53.42
2018-03-08T00:40:00.506Z,52.65
2018-03-08T00:42:29.590Z,53.60
2018-03-08T00:44:57.750Z,51.37
2018-03-08T00:47:25.887Z,51.53
2018-03-08T00:49:54.066Z,52.03
2018-03-08T00:52:22.230Z,49.92
2018-03-08T00:54:50.367Z,56.05
2018-03-08T00:57:19.274Z,52.65
2018-03-08T00:59:47.450Z,55.80
2018-03-08T01:02:15.647Z,53.95
2018-03-08T01:04:43.786Z,55.00
2018-03-08T01:07:12.722Z,54.17
2018-03-08T01:09:40.869Z,52.40
2018-03-08T01:12:09.014Z,52.62
2018-03-08T01:14:37.937Z,50.80
2018-03-08T01:17:06.099Z,53.95
2018-03-08T01:19:34.239Z,51.92
2018-03-08T01:22:03.141Z,54.78
2018-03-08T01:24:32.610Z,51.53
2018-03-08T01:27:00.753Z,49.40
2018-03-08T01:29:28.891Z,53.55
2018-03-08T01:31:57.822Z,51.90
2018-03-08T01:34:25.958Z,50.20
2018-03-08T01:36:54.890Z,51.67
2018-03-08T01:39:23.029Z,53.92
2018-03-08T01:41:51.174Z,52.95
2018-03-08T01:44:20.212Z,50.70
2018-03-08T01:46:48.351Z,52.00
2018-03-08T01:49:17.272Z,51.10
2018-03-08T01:52:03.277Z,53.58
2018-03-08T01:54:31.446Z,50.45
2018-03-08T01:56:59.585Z,54.40
2018-03-08T01:59:28.530Z,53.90
2018-03-08T02:01:56.661Z,55.95
2018-03-08T02:04:24.794Z,58.08
2018-03-08T02:06:52.946Z,50.85
2018-03-08T02:09:21.309Z,55.38
2018-03-08T02:11:49.478Z,55.80
2018-03-08T02:14:17.615Z,51.90
2018-03-08T02:16:46.513Z,48.90
2018-03-08T02:19:14.678Z,52.97
2018-03-08T02:21:43.573Z,51.85
2018-03-08T02:24:11.705Z,52.15
2018-03-08T02:26:39.868Z,53.75
2018-03-08T02:29:08.021Z,52.35
2018-03-08T02:31:36.163Z,50.78
2018-03-08T02:34:04.328Z,55.10
2018-03-08T02:36:33.235Z,51.03
2018-03-08T02:39:01.378Z,52.20
2018-03-08T02:41:30.315Z,53.87
2018-03-08T02:43:58.455Z,53.87
2018-03-08T02:46:27.382Z,54.72
2018-03-08T02:48:55.533Z,54.97
2018-03-08T02:51:23.666Z,54.00
2018-03-08T02:53:51.846Z,52.83
2018-03-08T02:56:20.751Z,52.50
2018-03-08T02:58:49.669Z,53.78
2018-03-08T03:01:17.830Z,49.40
2018-03-08T03:03:45.975Z,52.55
2018-03-08T03:06:14.938Z,55.40
2018-03-08T03:08:43.106Z,54.40
2018-03-08T03:11:11.237Z,53.30
2018-03-08T03:13:39.366Z,58.08
2018-03-08T03:16:07.531Z,54.78
2018-03-08T03:18:36.550Z,50.45
2018-03-08T03:21:05.450Z,50.50
2018-03-08T03:23:34.470Z,51.78
2018-03-08T03:26:02.611Z,50.85
2018-03-08T03:28:31.513Z,53.15
2018-03-08T03:30:59.678Z,51.58
2018-03-08T03:33:27.825Z,50.85
2018-03-08T03:35:55.962Z,52.58
2018-03-08T03:38:24.120Z,49.78
2018-03-08T03:40:52.253Z,50.85
2018-03-08T03:43:21.181Z,51.60
2018-03-08T03:45:49.344Z,54.92
2018-03-08T03:48:17.490Z,55.00
2018-03-08T03:50:46.406Z,52.97
2018-03-08T03:53:14.568Z,53.05
2018-03-08T03:55:42.697Z,53.10
2018-03-08T03:58:10.854Z,53.17
2018-03-08T04:00:39.015Z,53.60
2018-03-08T04:03:07.146Z,57.00
2018-03-08T04:05:36.094Z,54.67
2018-03-08T04:08:04.230Z,51.88
2018-03-08T04:10:32.370Z,53.75
2018-03-08T04:13:00.543Z,57.53
2018-03-08T04:15:28.673Z,54.67
2018-03-08T04:17:56.814Z,55.72
2018-03-08T04:20:25.106Z,52.85
2018-03-08T04:22:53.334Z,55.55
2018-03-08T04:25:21.482Z,58.13
2018-03-08T04:27:49.926Z,61.72
2018-03-08T04:30:18.058Z,55.92
2018-03-08T04:32:46.206Z,59.22
2018-03-08T04:35:14.350Z,56.80
2018-03-08T04:37:42.525Z,54.85
2018-03-08T04:40:10.662Z,57.53
2018-03-08T04:42:39.583Z,56.45
2018-03-08T04:45:07.759Z,57.15
2018-03-08T04:47:35.898Z,58.83
2018-03-08T04:50:04.820Z,61.35
2018-03-08T04:52:32.966Z,56.90
2018-03-08T04:55:01.882Z,59.30
2018-03-08T04:57:30.054Z,57.15
2018-03-08T04:59:58.198Z,55.40
2018-03-08T05:02:27.120Z,55.78
2018-03-08T05:04:55.278Z,56.55
2018-03-08T05:07:23.633Z,56.00
2018-03-08T05:09:52.580Z,58.33
2018-03-08T05:12:20.724Z,54.72
2018-03-08T05:14:48.856Z,58.08
2018-03-08T05:17:17.029Z,58.00
2018-03-08T05:19:45.970Z,58.55
2018-03-08T05:22:14.101Z,51.25
2018-03-08T05:24:43.009Z,50.60
2018-03-08T05:27:11.172Z,52.78
2018-03-08T05:29:40.106Z,54.38
2018-03-08T05:32:08.350Z,54.00
2018-03-08T05:34:36.505Z,53.95
2018-03-08T05:37:05.407Z,52.13
2018-03-08T05:39:33.538Z,53.25
2018-03-08T05:42:01.709Z,53.05
2018-03-08T05:44:29.850Z,55.90
2018-03-08T05:46:57.995Z,54.83
2018-03-08T05:49:26.942Z,54.88
2018-03-08T05:51:55.119Z,59.35
2018-03-08T05:54:23.280Z,59.25
2018-03-08T05:56:51.621Z,56.95
2018-03-08T05:59:19.793Z,59.65
2018-03-08T06:01:47.926Z,57.58
2018-03-08T06:04:16.064Z,58.35
2018-03-08T06:06:44.224Z,56.03
2018-03-08T06:09:12.358Z,55.08
2018-03-08T06:11:41.286Z,50.65
2018-03-08T06:14:09.446Z,54.97
2018-03-08T06:16:37.591Z,52.38
2018-03-08T06:19:05.779Z,49.90
2018-03-08T06:21:33.919Z,49.05
2018-03-08T06:24:02.054Z,46.28
2018-03-08T06:26:30.221Z,46.55
2018-03-08T06:28:58.358Z,46.40
2018-03-08T06:31:27.283Z,46.80
2018-03-08T06:33:55.470Z,42.88
2018-03-08T06:36:23.612Z,40.78
2018-03-08T06:38:51.762Z,43.28
2018-03-08T06:41:20.703Z,43.42
2018-03-08T06:43:48.834Z,39.08
2018-03-08T06:46:17.746Z,40.95
2018-03-08T06:48:45.906Z,37.63
2018-03-08T06:51:14.050Z,38.72
2018-03-08T06:53:42.982Z,38.10
2018-03-08T06:56:11.146Z,35.90
2018-03-08T06:58:39.292Z,35.67
2018-03-08T07:01:08.261Z,33.47
2018-03-08T07:03:36.434Z,34.00
2018-03-08T07:06:04.671Z,31.90
2018-03-08T07:08:32.808Z,33.33
2018-03-08T07:11:01.732Z,30.92
2018-03-08T07:13:29.865Z,30.45
2018-03-08T07:15:58.770Z,30.65
2018-03-08T07:18:27.706Z,26.83
2018-03-08T07:20:55.854Z,26.05
2018-03-08T07:23:24.011Z,27.98
2018-03-08T07:25:52.163Z,25.08
2018-03-08T07:28:21.095Z,25.15
2018-03-08T07:30:49.450Z,22.45
2018-03-08T07:33:17.603Z,23.70
2018-03-08T07:35:46.641Z,24.08
2018-03-08T07:38:14.777Z,23.98
2018-03-08T07:40:43.890Z,22.27
2018-03-08T07:43:12.037Z,22.33
2018-03-08T07:45:41.098Z,21.92
2018-03-08T07:48:09.458Z,22.23
2018-03-08T07:50:37.593Z,19.85
2018-03-08T07:53:06.551Z,17.87
2018-03-08T07:55:34.698Z,20.30
2018-03-08T07:58:02.955Z,19.08
2018-03-08T08:00:31.255Z,18.45
2018-03-08T08:02:59.394Z,18.87
2018-03-08T08:05:45.435Z,17.70
2018-03-08T08:08:32.490Z,16.00
2018-03-08T08:11:00.644Z,17.12
2018-03-08T08:13:29.578Z,16.62
2018-03-08T08:15:58.044Z,17.70
2018-03-08T08:18:26.175Z,16.05
2018-03-08T08:20:54.394Z,15.52
2018-03-08T08:23:22.506Z,17.40
2018-03-08T08:25:50.643Z,17.95
2018-03-08T08:28:18.808Z,16.95
2018-03-08T08:30:46.954Z,18.40
2018-03-08T08:33:15.888Z,15.15
2018-03-08T08:35:44.057Z,17.37
2018-03-08T08:38:12.188Z,17.60
2018-03-08T08:40:41.087Z,16.12
2018-03-08T08:43:10.018Z,14.68
2018-03-08T08:45:38.154Z,15.18
2018-03-08T08:48:06.637Z,15.13
2018-03-08T08:50:34.802Z,15.85
2018-03-08T08:53:03.711Z,14.20
2018-03-08T08:55:31.861Z,15.00
2018-03-08T08:58:00.811Z,16.70
2018-03-08T09:00:28.961Z,13.23
2018-03-08T09:02:57.118Z,14.95
2018-03-08T09:05:25.251Z,15.70
2018-03-08T09:07:53.386Z,15.65
2018-03-08T09:10:21.585Z,14.75
2018-03-08T09:12:49.714Z,14.30
2018-03-08T09:15:17.846Z,16.20
2018-03-08T09:17:46.757Z,14.63
2018-03-08T09:20:14.890Z,13.93
2018-03-08T09:22:43.045Z,14.68
2018-03-08T09:25:11.299Z,14.13
2018-03-08T09:27:39.464Z,13.35
2018-03-08T09:30:07.598Z,13.25
2018-03-08T09:32:35.750Z,13.27
2018-03-08T09:35:03.912Z,12.82
2018-03-08T09:37:32.114Z,13.65
2018-03-08T09:40:00.488Z,13.07
2018-03-08T09:42:29.407Z,11.40
2018-03-08T09:44:57.619Z,12.40
2018-03-08T09:47:25.748Z,11.93
2018-03-08T09:49:54.671Z,11.00
2018-03-08T09:52:22.831Z,12.50
2018-03-08T09:54:50.966Z,11.05
2018-03-08T09:57:19.104Z,12.30
2018-03-08T09:59:47.281Z,12.82
2018-03-08T10:02:15.414Z,13.52
2018-03-08T10:04:43.550Z,14.38
2018-03-08T10:07:11.710Z,13.75
2018-03-08T10:09:39.965Z,12.35
2018-03-08T10:12:08.121Z,12.68
2018-03-08T10:14:36.271Z,15.02
2018-03-08T10:17:04.916Z,13.88
2018-03-08T10:19:33.063Z,15.88
2018-03-08T10:22:01.223Z,19.42
2018-03-08T10:24:29.378Z,19.73
2018-03-08T10:26:57.523Z,21.70
2018-03-08T10:29:27.054Z,21.67
2018-03-08T10:31:55.202Z,21.75
2018-03-08T10:34:24.136Z,20.73
2018-03-08T10:36:52.298Z,20.88
2018-03-08T10:41:48.625Z,22.35
2018-03-08T10:44:17.529Z,22.00
2018-03-08T10:46:45.657Z,19.20
2018-03-08T10:49:13.807Z,23.55
2018-03-08T10:51:41.944Z,23.40
2018-03-08T10:54:10.077Z,19.90
2018-03-08T10:56:38.227Z,22.50
2018-03-08T10:59:06.378Z,19.50
2018-03-08T11:01:34.542Z,20.90
2018-03-08T11:04:08.190Z,20.02
2018-03-08T11:06:37.145Z,21.58
2018-03-08T11:09:05.284Z,23.12
2018-03-08T11:11:33.430Z,22.17
2018-03-08T11:14:01.606Z,20.12
2018-03-08T11:16:29.739Z,21.83
2018-03-08T11:18:57.886Z,21.27
2018-03-08T11:21:26.154Z,21.30
2018-03-08T11:23:54.294Z,19.60
2018-03-08T11:26:22.433Z,21.20
2018-03-08T11:28:50.591Z,21.42
2018-03-08T11:31:18.734Z,21.25
2018-03-08T11:33:48.998Z,21.70
2018-03-08T11:36:17.270Z,20.33
2018-03-08T11:38:45.406Z,20.45
2018-03-08T11:41:13.542Z,19.50
2018-03-08T11:43:41.698Z,19.25
2018-03-08T11:46:09.855Z,17.80
2018-03-08T11:48:38.139Z,17.48
2018-03-08T11:51:06.290Z,17.75
2018-03-08T11:53:34.431Z,16.90
2018-03-08T11:56:03.383Z,17.23
2018-03-08T11:58:31.526Z,17.48
2018-03-08T12:00:59.708Z,18.20
2018-03-08T12:03:27.874Z,15.63
2018-03-08T12:05:56.015Z,16.92
2018-03-08T12:08:24.167Z,16.23
2018-03-08T12:10:52.350Z,17.25
2018-03-08T12:13:21.258Z,14.60
2018-03-08T12:15:49.397Z,17.02
2018-03-08T12:18:18.353Z,17.60
2018-03-08T12:20:46.498Z,15.57
2018-03-08T12:23:14.665Z,14.10
2018-03-08T12:25:43.716Z,15.20
2018-03-08T12:28:12.158Z,16.37
2018-03-08T12:30:40.322Z,16.43
2018-03-08T12:33:08.462Z,14.43
2018-03-08T12:35:36.602Z,14.83
2018-03-08T12:38:04.842Z,15.53
2018-03-08T12:40:33.038Z,15.27
2018-03-08T12:43:01.189Z,15.50
2018-03-08T12:45:29.368Z,16.87
2018-03-08T12:47:57.525Z,14.10
2018-03-08T12:50:26.481Z,15.23
2018-03-08T12:52:55.427Z,14.80
2018-03-08T12:55:23.561Z,16.00
2018-03-08T12:57:52.038Z,15.23
2018-03-08T13:00:20.174Z,14.37
2018-03-08T13:02:48.328Z,16.03
2018-03-08T13:05:16.503Z,15.07
2018-03-08T13:07:44.654Z,16.53
2018-03-08T13:10:12.871Z,16.47
2018-03-08T13:12:41.014Z,16.07
2018-03-08T13:15:09.162Z,17.40
2018-03-08T13:17:38.092Z,16.90
2018-03-08T13:20:07.079Z,17.17
2018-03-08T13:22:35.227Z,16.30
2018-03-08T13:25:03.399Z,13.43
2018-03-08T13:27:31.548Z,14.00
2018-03-08T13:30:00.458Z,13.97
2018-03-08T13:32:29.388Z,13.37
2018-03-08T13:34:57.530Z,13.70
2018-03-08T13:37:25.729Z,14.73
2018-03-08T13:39:53.872Z,13.93
2018-03-08T13:42:22.042Z,14.17
2018-03-08T13:44:50.217Z,13.00
2018-03-08T13:47:18.364Z,13.80
2018-03-08T13:49:46.505Z,12.13
2018-03-08T13:52:14.686Z,14.90
2018-03-08T13:54:42.852Z,13.70
2018-03-08T13:57:11.006Z,11.80
2018-03-08T13:59:39.406Z,10.80
2018-03-08T14:02:08.491Z,10.70
2018-03-08T14:04:36.642Z,11.27
2018-03-08T14:07:04.848Z,11.90
2018-03-08T14:09:32.995Z,11.57
2018-03-08T14:12:01.135Z,9.73
2018-03-08T14:14:30.063Z,10.87
2018-03-08T14:16:58.209Z,10.07
2018-03-08T14:19:26.417Z,9.40
2018-03-08T14:21:54.605Z,11.10
2018-03-08T14:24:22.762Z,9.80
2018-03-08T14:26:51.525Z,9.63
2018-03-08T14:29:19.685Z,9.03
2018-03-08T14:31:48.567Z,11.20
2018-03-08T14:34:17.504Z,8.87
2018-03-08T14:36:45.660Z,9.53
2018-03-08T14:39:13.797Z,8.83
2018-03-08T14:41:42.738Z,8.77
2018-03-08T14:44:10.882Z,8.60
2018-03-08T14:46:39.024Z,6.57
2018-03-08T14:49:07.949Z,5.53
2018-03-08T14:51:36.085Z,5.20
2018-03-08T14:54:04.513Z,5.40
2018-03-08T14:56:32.678Z,4.57
2018-03-08T14:59:00.813Z,4.90
2018-03-08T15:01:29.722Z,4.57
2018-03-08T15:03:57.899Z,4.80
2018-03-08T15:06:26.034Z,3.53
2018-03-08T15:08:54.188Z,3.93
2018-03-08T15:11:22.357Z,4.63
2018-03-08T15:13:50.542Z,4.00
2018-03-08T15:16:18.711Z,3.60
2018-03-08T15:18:46.842Z,4.07
2018-03-08T15:21:14.979Z,3.40
2018-03-08T15:23:43.926Z,3.07
2018-03-08T15:26:12.058Z,3.17
2018-03-08T15:28:40.996Z,3.60
2018-03-08T15:31:09.147Z,3.10
2018-03-08T15:33:37.327Z,3.93
2018-03-08T15:36:05.463Z,3.10
2018-03-08T15:38:34.432Z,2.77
2018-03-08T15:41:02.672Z,3.40
2018-03-08T15:43:30.831Z,3.37
2018-03-08T15:45:58.977Z,3.17
2018-03-08T15:48:27.922Z,2.63
2018-03-08T15:50:56.067Z,8.40
2018-03-08T15:53:24.246Z,4.10
2018-03-08T15:55:52.468Z,3.30
2018-03-08T15:58:20.756Z,3.10
2018-03-08T16:00:49.851Z,8.30
2018-03-08T16:03:18.022Z,3.40
2018-03-08T16:05:46.922Z,2.87
2018-03-08T16:11:21.973Z,2.60
2018-03-08T16:13:50.994Z,3.20
2018-03-08T16:16:19.138Z,3.00
2018-03-08T16:18:48.042Z,2.60
2018-03-08T16:21:16.190Z,3.73
2018-03-08T16:23:45.158Z,3.20
2018-03-08T16:26:13.411Z,3.20
2018-03-08T16:28:41.579Z,3.73
2018-03-08T16:31:09.750Z,3.60
2018-03-08T16:33:37.891Z,3.63
2018-03-08T16:36:06.044Z,4.20
2018-03-08T16:38:34.233Z,2.90
2018-03-08T16:41:02.402Z,4.40
2018-03-08T16:43:31.302Z,4.73
2018-03-08T16:45:59.483Z,4.13
2018-03-08T16:48:27.645Z,4.10
2018-03-08T16:50:55.782Z,4.10
2018-03-08T16:53:23.963Z,4.17
2018-03-08T16:55:52.878Z,8.57
2018-03-08T16:58:21.038Z,16.87
2018-03-08T17:00:49.970Z,31.60
2018-03-08T17:03:18.234Z,53.57
2018-03-08T17:05:46.450Z,16.23
2018-03-08T17:08:14.585Z,8.10
2018-03-08T17:10:42.736Z,9.00
2018-03-08T17:13:10.950Z,4.77
2018-03-08T17:15:39.778Z,5.40
2018-03-08T17:18:08.780Z,5.43
2018-03-08T17:20:37.706Z,4.97
2018-03-08T17:23:05.866Z,5.40
2018-03-08T17:25:34.011Z,5.93
2018-03-08T17:28:03.061Z,5.67
2018-03-08T17:30:31.219Z,5.90
2018-03-08T17:32:59.382Z,5.30
2018-03-08T17:35:27.671Z,5.87
2018-03-08T17:37:55.808Z,6.70
2018-03-08T17:40:23.947Z,5.37
2018-03-08T17:42:52.152Z,7.82
2018-03-08T17:45:20.355Z,6.67
2018-03-08T17:47:48.514Z,5.00
2018-03-08T17:50:16.682Z,8.07
2018-03-08T17:52:44.835Z,8.50
2018-03-08T17:55:13.750Z,8.02
2018-03-08T17:57:41.957Z,6.90
2018-03-08T18:00:10.179Z,6.40
2018-03-08T18:02:38.388Z,5.07
2018-03-08T18:05:06.567Z,5.70
2018-03-08T18:07:34.720Z,4.78
2018-03-08T18:10:02.878Z,5.50
2018-03-08T18:12:31.040Z,5.32
2018-03-08T18:14:59.212Z,6.70
2018-03-08T18:17:27.362Z,5.00
2018-03-08T18:19:56.270Z,4.80
2018-03-08T18:22:24.446Z,6.07
2018-03-08T18:24:53.456Z,5.87
2018-03-08T18:27:21.595Z,5.43
2018-03-08T18:29:50.579Z,6.40
2018-03-08T18:32:18.742Z,4.82
2018-03-08T18:34:46.915Z,5.10
2018-03-08T18:37:15.124Z,4.85
2018-03-08T18:39:43.304Z,7.80
2018-03-08T18:42:11.444Z,7.65
2018-03-08T18:44:39.591Z,6.40
2018-03-08T18:47:07.768Z,5.40
2018-03-08T18:49:35.936Z,5.55
2018-03-08T18:52:04.095Z,5.05
2018-03-08T18:54:32.229Z,5.72
2018-03-08T18:57:01.162Z,5.15
2018-03-08T18:59:29.304Z,5.10
2018-03-08T19:01:57.457Z,5.43
2018-03-08T19:04:26.382Z,4.80
2018-03-08T19:06:54.535Z,5.20
2018-03-08T19:09:23.482Z,5.90
2018-03-08T19:12:01.975Z,5.53
2018-03-08T19:14:30.135Z,11.07
2018-03-08T19:16:58.265Z,6.40
2018-03-08T19:19:27.198Z,8.30
2018-03-08T19:21:55.389Z,6.30
2018-03-08T19:24:23.555Z,4.55
2018-03-08T19:26:51.693Z,4.68
2018-03-08T19:29:19.853Z,4.97
2018-03-08T19:31:48.758Z,4.57
2018-03-08T19:34:16.886Z,4.57
2018-03-08T19:36:45.052Z,4.18
2018-03-08T19:39:13.190Z,4.10
2018-03-08T19:41:41.334Z,4.50
2018-03-08T19:44:10.274Z,4.60
2018-03-08T19:46:38.846Z,3.70
2018-03-08T19:49:06.980Z,4.15
2018-03-08T19:51:35.916Z,4.05
2018-03-08T19:54:04.069Z,4.00
2018-03-08T19:56:32.211Z,4.60
2018-03-08T19:59:00.357Z,4.00
2018-03-08T20:01:28.525Z,4.68
2018-03-08T20:03:56.679Z,7.30
2018-03-08T20:06:24.905Z,4.50
2018-03-08T20:08:53.834Z,4.55
2018-03-08T20:11:22.730Z,5.60
2018-03-08T20:13:52.043Z,5.10
2018-03-08T20:16:20.243Z,4.35
2018-03-08T20:18:48.470Z,4.75
2018-03-08T20:21:16.630Z,3.97
2018-03-08T20:23:45.354Z,4.90
2018-03-08T20:26:14.130Z,4.45
2018-03-08T20:28:42.325Z,4.35
2018-03-08T20:31:10.543Z,4.60
2018-03-08T20:33:38.706Z,5.90
2018-03-08T20:36:17.602Z,17.15
2018-03-08T20:38:45.739Z,12.32
2018-03-08T20:41:13.951Z,12.48
2018-03-08T20:43:42.175Z,19.50
2018-03-08T20:46:10.447Z,35.00
2018-03-08T20:48:38.584Z,19.77
2018-03-08T20:51:07.514Z,7.18
2018-03-08T20:53:35.655Z,5.82
2018-03-08T20:56:04.586Z,6.40
2018-03-08T20:58:32.779Z,6.05
2018-03-08T21:01:00.933Z,4.93
2018-03-08T21:03:29.310Z,6.80
2018-03-08T21:05:57.464Z,5.15
2018-03-08T21:08:25.606Z,4.68
2018-03-08T21:10:54.539Z,4.55
2018-03-08T21:13:22.674Z,4.70
2018-03-08T21:15:51.572Z,6.45
2018-03-08T21:18:19.741Z,4.68
2018-03-08T21:20:48.739Z,4.10
2018-03-08T21:23:16.874Z,4.60
2018-03-08T21:25:45.869Z,3.87
2018-03-08T21:28:13.998Z,3.95
2018-03-08T21:30:42.483Z,3.90
2018-03-08T21:33:11.017Z,4.20
2018-03-08T21:35:40.145Z,4.80
2018-03-08T21:38:08.283Z,3.87
2018-03-08T21:40:36.529Z,3.65
2018-03-08T21:43:04.669Z,4.10
2018-03-08T21:45:32.856Z,5.10
2018-03-08T21:48:00.990Z,4.60
2018-03-08T21:50:30.441Z,4.15
2018-03-08T21:52:58.586Z,5.12
2018-03-08T21:55:26.718Z,4.15
2018-03-08T21:57:54.891Z,5.15
2018-03-08T22:00:23.117Z,4.53
2018-03-08T22:02:51.247Z,4.35
2018-03-08T22:05:20.246Z,5.03
2018-03-08T22:07:49.157Z,5.90
2018-03-08T22:10:17.295Z,7.07
2018-03-08T22:12:45.469Z,5.25
2018-03-08T22:15:13.598Z,5.07
2018-03-08T22:17:41.737Z,5.90
2018-03-08T22:20:10.674Z,5.75
2018-03-08T22:22:38.804Z,5.82
2018-03-08T22:25:06.943Z,6.72
2018-03-08T22:27:35.102Z,5.90
2018-03-08T22:30:03.237Z,5.32
2018-03-08T22:32:31.831Z,6.60
2018-03-08T22:35:00.735Z,5.45
2018-03-08T22:37:28.870Z,5.80
2018-03-08T22:39:57.862Z,5.20
2018-03-08T22:42:25.999Z,5.90
2018-03-08T22:44:54.230Z,5.62
2018-03-08T22:47:22.393Z,4.95
2018-03-08T22:49:50.525Z,6.10
2018-03-08T22:52:19.423Z,6.80
2018-03-08T22:54:48.346Z,6.47
2018-03-08T22:57:16.466Z,5.65
2018-03-08T22:59:44.598Z,5.78
2018-03-08T23:02:12.754Z,6.82
2018-03-08T23:04:40.974Z,5.60
2018-03-08T23:07:09.102Z,6.20
2018-03-08T23:09:37.232Z,6.30
2018-03-08T23:12:05.377Z,5.60
2018-03-08T23:14:33.522Z,6.57
2018-03-08T23:17:01.692Z,6.18
2018-03-08T23:19:29.826Z,6.53
2018-03-08T23:21:58.722Z,5.32
2018-03-08T23:24:27.644Z,4.40
2018-03-08T23:26:55.772Z,4.00
2018-03-08T23:29:23.906Z,4.45
2018-03-08T23:31:52.071Z,3.40
2018-03-08T23:34:20.196Z,3.85
2018-03-08T23:36:48.377Z,4.57
2018-03-08T23:39:17.406Z,3.50
2018-03-08T23:41:45.547Z,3.12
2018-03-08T23:44:14.457Z,2.90
2018-03-08T23:46:42.606Z,3.25
2018-03-08T23:49:11.506Z,3.37
2018-03-08T23:51:40.730Z,3.50
2018-03-08T23:54:08.902Z,3.65
2018-03-08T23:56:37.082Z,3.40
2018-03-08T23:59:05.217Z,3.37
